"WATCHING THE WEATHER TO PROTECT LIFE AND PROPERTY"


Aviation
Satellite (InfraRed)


KFLL 271513Z 14011G20KT 3SM R10L/2200VP6000FT -TSRA BR SCT008 BKN015CB OVC040 24/24 A2983 RMK AO2 LTG DSNT NE-SE OCNL LTGICCG NE AND DSNT SE TS NE MOV N CB NW-NE-SE MOV N P0010 T02390239 $
KMCO 271514Z 13011KT 4SM R35L/6000VP6000FT -RA BR SCT018 BKN026 OVC055 24/24 A2981 RMK AO2 PK WND 15026/1454 RAB1454 P0029 T02390239
KMIA 271509Z 17017G24KT 7SM -RA BKN009 BKN015 OVC030 25/24 A2983 RMK AO2 LTG DSNT N AND E TSE03 CB DSNT N-E P0002 T02500244
KTPA 271456Z 11009G18KT 6SM -RA BR FEW009 BKN013 OVC027 25/23 A2973 RMK AO2 CIG 011V017 P0000 T02500228
MDPP 271500Z 15008KT 9999 FEW020 SCT300 31/23 Q1015
MDSD 271500Z 12010KT 080V150 9999 FEW022 30/24 Q1016 NOSIG
MKJS 271500Z 07009KT 9999 BKN022 31/24 Q1012
MTPP 271500Z 10012G22KT 9000 FEW026 BKN060 32/21 Q1013 A2992
MUHA 271455Z 22011KT 180V240 9000 BKN015 28/24 Q1010
MYNN 271500Z 15015KT 8000 -RA BKN018CB OVC080 25/24 A2995 RMK CB/SCT ALQDS PKWND 19KTS
TAPA 271500Z 14006KT 9999 FEW018 25/22 Q1017 NOSIG
TFFF 271500Z AUTO 13011KT 100V160 9999 BKN032 BKN048 31/23 Q1017 TEMPO 4000 SHRA SCT018TCU
TFFR 271500Z AUTO 13011KT 100V170 9999 SCT027 SCT035 29/24 Q1017 TEMPO 3000 SHRA SCT018TCU
TIST 271513Z AUTO 13007KT 5SM -RA FEW021 BKN038 OVC055 A3005 RMK AO2 P0010 $
TISX 271453Z 11010KT 10SM SCT023 31/24 A3006 RMK AO2 SLP176 T03060244 51008
TJSJ 271356Z 06012KT 10SM SCT020 SCT031 SCT046 29/25 A3005 RMK AO2 SLP173 VCSH SE-S T02890250 $
TKPK 271500Z 10014KT 9999 VCSH FEW004 SCT016 28/25 Q1017
TNCA 271500Z 09018KT 9999 SCT019 30/24 Q1013 NOSIG
TNCB 271455Z 10018KT 070V140 9999 SCT020 30/24 Q1014
TNCC 271500Z AUTO 10015KT 9999 BKN020 29/24 Q1014 NOSIG
TNCE 271455Z AUTO 12006KT 090V170 //// // ///////// 27/24 Q1018 RE//
TNCM 271500Z 10011KT 060V130 9999 SCT014 29/23 Q1018 NOSIG RMK A3006
TQPF 271500Z 09014KT 9999 SCT015 BKN035 27/22 Q1018
TUPJ 271500Z 10008KT 020V150 10SM SCT018 31/24 A3006 RMK Q1017